Terminal Aerodrome Forecast
Issued by NWS Sterling, VA

Home | Current Version | Previous Version | Text Only | Print | Product List | Glossary On
Versions: 1 2 3 4 5 6 7 8 9 10 11 12 13 14
137
FTUS41 KLWX 142334
TAFCHO
TAF
KCHO 142334Z 1500/1524 35003KT P6SM SKC
     FM151200 00000KT P6SM BKN030
     FM151900 21005KT P6SM BKN040
     FM152000 22005KT P6SM SCT045
     FM152100 22006KT P6SM SCT250=

USA.gov is the U.S. government's official web portal to all federal, state and local government web resources and services.